Daretown, New Jersey
Current Conditions -  °F | °C
As of 9:54 AM on Thursday 30 Oct 2014 (Local Time) from KMIV Reporting Station
Overcast Overcast  
Wind Chill: 51°   Ceiling: 7000
Heat Index: 51°   Visibility: 10mi
Dew Point: 45°   Wind: 6mph
Humidity: 80%   Direction: 320°NW
Pressure: 30.03"   Gusts: NA
Location:  39.5646°N, 75.1874°W
Report Text: KMIV 301354Z AUTO 32005KT 10SM OVC070 11/07 A3003 RMK AO2 SLP167 T01060072
Loading
Personal Weather Stations






























Interactive Weather Map
Tropical Storm Tracking
New forecast layout! Learn more

10-Day Weather Forecast

Advertisements
Track Severe Weather on mobile